Time;durP1;ratioP1;P1;durP2;ratioP2;P2;SDS_P1;SDS_P2;PMS_P1;PMS_P2;Temp;Humidity;BMP_temperature;BMP_pressure;BME280_temperature;BME280_humidity;BME280_pressure;Samples;Min_cycle;Max_cycle;Signal;HPM_P1;HPM_P2
2022/11/22 00:00:17;;;;;;;4.85;1.42;;;22.20;25.40;;;;;;5040343;28;20102;-63
2022/11/22 00:02:44;;;;;;;12.65;1.83;;;22.00;25.60;;;;;;5041309;28;20155;-63
2022/11/22 00:05:11;;;;;;;22.23;7.75;;;21.90;25.90;;;;;;5039027;28;20091;-67
2022/11/22 00:07:37;;;;;;;9.25;2.08;;;21.80;26.10;;;;;;5043563;28;20073;-65
2022/11/22 00:10:09;;;;;;;25.13;2.67;;;21.70;26.30;;;;;;5039453;28;20077;-65
2022/11/22 00:12:36;;;;;;;18.95;2.72;;;21.60;26.90;;;;;;5037895;28;20078;-65
2022/11/22 00:15:03;;;;;;;32.80;3.35;;;21.40;27.90;;;;;;5040333;28;20530;-66
2022/11/22 00:17:31;;;;;;;31.65;4.10;;;21.30;27.90;;;;;;5034861;28;20157;-66
2022/11/22 00:19:57;;;;;;;44.72;5.40;;;21.10;28.40;;;;;;5038714;28;20062;-65
2022/11/22 00:22:24;;;;;;;31.17;3.70;;;20.90;29.00;;;;;;5022631;28;20080;-67
2022/11/22 00:24:52;;;;;;;81.43;8.77;;;20.80;29.60;;;;;;5039732;28;20090;-69
2022/11/22 00:27:19;;;;;;;48.00;5.78;;;20.80;30.40;;;;;;5046598;28;20407;-69
2022/11/22 00:29:45;;;;;;;73.68;7.00;;;20.60;31.20;;;;;;5041361;28;20090;-67
2022/11/22 00:32:12;;;;;;;88.82;7.50;;;20.40;31.80;;;;;;5045406;28;20119;-69
2022/11/22 00:34:38;;;;;;;47.17;5.15;;;20.20;32.30;;;;;;5045683;28;20431;-67
2022/11/22 00:37:05;;;;;;;19.10;3.35;;;20.10;31.90;;;;;;5043652;28;20550;-66
2022/11/22 00:39:31;;;;;;;17.60;2.95;;;19.90;32.20;;;;;;5042163;28;20124;-68
2022/11/22 00:41:58;;;;;;;24.77;3.53;;;19.90;32.00;;;;;;5045190;28;20089;-67
2022/11/22 00:44:24;;;;;;;19.35;3.47;;;19.80;32.10;;;;;;5032639;28;20086;-68
2022/11/22 00:46:51;;;;;;;30.65;3.78;;;19.70;33.30;;;;;;5042841;28;20176;-69
2022/11/22 00:49:17;;;;;;;21.58;3.83;;;19.60;34.60;;;;;;5041991;28;20104;-68
2022/11/22 00:51:43;;;;;;;14.95;3.90;;;19.50;34.50;;;;;;5042736;28;20412;-69
2022/11/22 00:54:10;;;;;;;25.23;4.57;;;19.40;35.10;;;;;;5041014;28;20089;-69
2022/11/22 00:56:36;;;;;;;28.20;5.80;;;19.30;36.10;;;;;;5022076;28;20077;-69
2022/11/22 00:59:03;;;;;;;36.65;6.13;;;19.00;35.20;;;;;;5042494;28;20066;-69
2022/11/22 01:01:29;;;;;;;28.80;5.07;;;19.00;35.50;;;;;;5043844;28;20078;-67
2022/11/22 01:03:56;;;;;;;37.70;15.55;;;18.70;35.90;;;;;;5044287;28;20113;-67
2022/11/22 01:06:22;;;;;;;47.38;16.20;;;18.70;35.80;;;;;;5037680;28;20439;-68
2022/11/22 01:08:48;;;;;;;47.05;16.40;;;18.60;36.30;;;;;;5039363;28;20070;-66
2022/11/22 01:11:17;;;;;;;47.15;19.15;;;18.50;36.00;;;;;;5043525;28;20062;-67
2022/11/22 01:13:44;;;;;;;27.58;7.18;;;18.40;35.50;;;;;;5041294;28;20118;-68
2022/11/22 01:16:12;;;;;;;39.97;8.07;;;18.30;35.80;;;;;;5040475;28;20092;-68
2022/11/22 01:18:38;;;;;;;36.80;8.90;;;18.10;36.30;;;;;;5044635;28;20199;-67
2022/11/22 01:21:05;;;;;;;28.75;8.30;;;18.00;37.10;;;;;;5046455;28;20066;-66
2022/11/22 01:23:33;;;;;;;45.53;8.80;;;17.90;37.50;;;;;;5037553;28;20086;-68
2022/11/22 01:25:59;;;;;;;35.05;8.23;;;17.80;37.90;;;;;;5039285;28;20070;-68
2022/11/22 01:28:26;;;;;;;36.00;8.35;;;17.70;38.60;;;;;;5049785;28;20082;-71
2022/11/22 01:30:53;;;;;;;32.58;8.02;;;17.60;39.30;;;;;;5044685;28;20090;-67
2022/11/22 01:33:20;;;;;;;32.85;7.97;;;17.60;39.30;;;;;;5031494;28;20074;-69
2022/11/22 01:35:47;;;;;;;40.70;8.60;;;17.50;39.20;;;;;;5038603;28;20081;-68
2022/11/22 01:38:13;;;;;;;36.83;7.78;;;17.40;39.50;;;;;;5040030;28;20070;-68
2022/11/22 01:40:40;;;;;;;39.80;7.82;;;17.30;40.60;;;;;;5042085;28;21262;-67
2022/11/22 01:43:19;;;;;;;83.25;36.97;;;17.30;40.40;;;;;;5044804;28;20066;-68
2022/11/22 01:45:53;;;;;;;60.20;23.83;;;17.10;40.40;;;;;;5041093;28;20086;-67
2022/11/22 01:48:56;;;;;;;54.28;14.73;;;17.10;41.10;;;;;;5042935;28;20073;-66
2022/11/22 01:51:40;;;;;;;39.97;10.82;;;17.10;41.10;;;;;;5042908;28;20070;-66
2022/11/22 01:54:12;;;;;;;55.65;11.00;;;17.10;41.40;;;;;;5042892;28;20073;-65
2022/11/22 01:56:40;;;;;;;34.38;8.25;;;16.90;42.00;;;;;;5041603;28;20073;-66
2022/11/22 01:59:13;;;;;;;46.80;9.05;;;16.80;42.50;;;;;;5045595;28;20585;-67
2022/11/22 02:01:40;;;;;;;51.90;9.40;;;16.80;41.90;;;;;;5044997;28;20073;-66
2022/11/22 02:04:10;;;;;;;38.20;9.90;;;16.90;41.90;;;;;;5038040;28;20117;-65
2022/11/22 02:06:53;;;;;;;37.05;9.82;;;16.70;42.20;;;;;;5043209;28;20146;-65
2022/11/22 02:09:21;;;;;;;50.60;11.32;;;16.60;42.70;;;;;;5039665;28;20458;-65
2022/11/22 02:11:50;;;;;;;51.22;10.88;;;16.60;42.90;;;;;;5044106;28;20074;-65
2022/11/22 02:14:21;;;;;;;49.05;11.50;;;16.60;42.20;;;;;;5039333;28;20093;-65
2022/11/22 02:16:48;;;;;;;39.22;10.43;;;16.50;42.40;;;;;;5038430;28;20070;-67
2022/11/22 02:19:22;;;;;;;49.85;13.52;;;16.40;42.40;;;;;;5042624;28;20062;-66
2022/11/22 02:21:54;;;;;;;47.72;11.73;;;16.40;42.70;;;;;;5040708;28;20065;-66
2022/11/22 02:24:32;;;;;;;43.92;12.80;;;16.40;42.60;;;;;;5043584;28;20407;-65
2022/11/22 02:26:59;;;;;;;40.63;11.27;;;16.30;42.40;;;;;;5039862;28;20434;-65
2022/11/22 02:29:25;;;;;;;;;;;16.20;42.20;;;;;;5042376;28;20085;-65
2022/11/22 02:31:51;;;;;;;44.72;12.13;;;16.10;43.30;;;;;;5040987;28;20333;-68
2022/11/22 02:34:17;;;;;;;;;;;16.00;43.30;;;;;;5043447;28;20400;-67
2022/11/22 02:36:49;;;;;;;53.60;13.00;;;16.10;43.40;;;;;;5043145;28;19957;-68
2022/11/22 02:39:19;;;;;;;47.30;12.13;;;16.00;43.50;;;;;;5040681;28;20160;-66
2022/11/22 02:41:47;;;;;;;45.55;11.98;;;16.00;44.40;;;;;;5046880;28;20069;-68
2022/11/22 02:44:13;;;;;;;48.08;12.32;;;16.00;45.00;;;;;;5045609;28;20574;-65
2022/11/22 02:46:48;;;;;;;66.93;14.35;;;15.90;44.50;;;;;;5042414;28;20073;-66
2022/11/22 02:49:20;;;;;;;56.42;14.07;;;15.90;44.40;;;;;;5043916;28;20089;-66
2022/11/22 02:51:47;;;;;;;56.55;14.13;;;15.80;44.90;;;;;;5043345;28;20889;-66
2022/11/22 02:54:14;;;;;;;76.28;15.65;;;15.70;44.90;;;;;;5043605;28;20089;-66
2022/11/22 02:56:40;;;;;;;69.38;15.38;;;15.60;44.90;;;;;;5040223;28;20474;-66
2022/11/22 02:59:06;;;;;;;84.43;16.25;;;15.70;45.10;;;;;;5039312;28;20089;-67
2022/11/22 03:01:33;;;;;;;;;;;15.70;45.20;;;;;;5042103;28;20115;-64
2022/11/22 03:03:59;;;;;;;84.75;18.35;;;15.60;46.60;;;;;;5041658;28;19981;-66
2022/11/22 03:06:25;;;;;;;;;;;15.60;46.00;;;;;;5042824;28;20078;-64
2022/11/22 03:08:52;;;;;;;74.35;16.73;;;15.50;46.00;;;;;;5042050;28;19973;-65
2022/11/22 03:11:18;;;;;;;75.40;16.23;;;15.40;46.30;;;;;;5040212;28;20070;-65
2022/11/22 03:13:44;;;;;;;;;;;15.50;47.80;;;;;;5043367;28;20090;-66
2022/11/22 03:16:10;;;;;;;67.57;16.38;;;15.50;47.00;;;;;;5040009;28;19984;-65
2022/11/22 03:18:37;;;;;;;62.85;16.50;;;15.40;46.30;;;;;;5037032;28;20074;-66
2022/11/22 03:21:06;;;;;;;71.85;17.15;;;15.30;46.40;;;;;;5041299;28;20450;-65
2022/11/22 03:23:32;;;;;;;68.32;15.65;;;15.40;47.10;;;;;;5037247;28;20124;-65
2022/11/22 03:25:58;;;;;;;;;;;15.30;46.80;;;;;;5038209;28;20064;-65
2022/11/22 03:28:26;;;;;;;61.53;16.90;;;15.30;46.70;;;;;;5046544;28;19957;-65
2022/11/22 03:30:52;;;;;;;65.03;17.58;;;15.10;46.80;;;;;;5028075;28;20074;-65
2022/11/22 03:33:18;;;;;;;;;;;15.10;46.80;;;;;;5041459;28;20090;-65
2022/11/22 03:35:44;;;;;;;68.25;17.83;;;15.10;46.70;;;;;;5039924;28;20023;-67
2022/11/22 03:38:10;;;;;;;;;;;15.20;46.90;;;;;;5047769;28;20076;-66
2022/11/22 03:40:37;;;;;;;71.05;17.88;;;15.10;47.50;;;;;;5046036;28;20187;-67
2022/11/22 03:43:03;;;;;;;;;;;15.10;47.30;;;;;;5039467;28;20066;-64
2022/11/22 03:45:29;;;;;;;63.30;16.77;;;15.10;47.30;;;;;;5040308;28;19966;-63
2022/11/22 03:47:56;;;;;;;69.70;19.48;;;15.00;47.50;;;;;;5040663;28;20077;-66
2022/11/22 03:50:24;;;;;;;74.05;19.63;;;14.90;47.30;;;;;;5044189;28;20156;-63
2022/11/22 03:52:50;;;;;;;74.45;21.40;;;14.90;48.30;;;;;;5040571;28;20081;-66
2022/11/22 03:55:16;;;;;;;;;;;14.90;47.70;;;;;;5039765;28;20111;-64
2022/11/22 03:57:43;;;;;;;97.22;24.85;;;14.90;47.70;;;;;;5038321;28;19958;-66
2022/11/22 04:00:09;;;;;;;;;;;14.80;48.20;;;;;;5041739;28;20070;-64
2022/11/22 04:02:35;;;;;;;73.47;26.70;;;14.70;47.80;;;;;;5039115;28;20068;-65
2022/11/22 04:05:02;;;;;;;;;;;14.80;48.30;;;;;;5037281;28;20093;-65
2022/11/22 04:07:28;;;;;;;82.28;27.63;;;14.70;49.00;;;;;;5038206;28;19973;-63
2022/11/22 04:09:54;;;;;;;;;;;14.70;48.80;;;;;;5037244;28;20159;-67
2022/11/22 04:12:21;;;;;;;85.07;26.45;;;14.60;48.60;;;;;;5037482;28;20418;-68
2022/11/22 04:17:46;;;;;;;92.78;28.02;;;14.60;49.80;;;;;;5045008;28;19960;-67
2022/11/22 04:23:13;;;;;;;83.07;26.40;;;14.50;49.40;;;;;;5041994;28;20569;-64
2022/11/22 04:25:42;;;;;;;91.50;28.55;;;14.50;49.10;;;;;;5036638;28;20078;-66
2022/11/22 04:28:10;;;;;;;86.20;27.77;;;14.50;49.00;;;;;;5041553;28;20081;-66
2022/11/22 04:33:24;;;;;;;78.57;25.90;;;14.40;50.40;;;;;;5026528;28;20501;-65
2022/11/22 04:35:50;;;;;;;97.97;25.38;;;14.40;49.90;;;;;;5038460;28;20094;-66
2022/11/22 04:38:18;;;;;;;91.47;26.77;;;14.30;49.60;;;;;;5043747;28;20065;-66
2022/11/22 04:40:44;;;;;;;69.68;24.25;;;14.20;49.50;;;;;;5039831;28;20131;-67
2022/11/22 04:46:08;;;;;;;84.10;23.58;;;14.20;50.60;;;;;;5037495;28;20119;-66
2022/11/22 04:48:35;;;;;;;67.68;22.70;;;14.10;50.10;;;;;;5039090;28;20074;-65
2022/11/22 04:53:48;;;;;;;76.40;21.92;;;14.00;50.80;;;;;;5041370;28;20132;-64
2022/11/22 04:56:14;;;;;;;;;;;14.00;50.80;;;;;;5041512;28;20148;-65
2022/11/22 04:58:40;;;;;;;87.22;26.23;;;13.90;50.80;;;;;;5038203;28;19957;-65
2022/11/22 05:01:06;;;;;;;;;;;13.80;50.80;;;;;;5040653;28;20481;-65
2022/11/22 05:03:33;;;;;;;91.75;21.73;;;13.70;51.20;;;;;;5038225;28;19987;-66
2022/11/22 05:06:02;;;;;;;;;;;13.70;51.20;;;;;;5037974;28;20160;-64
2022/11/22 05:08:29;;;;;;;77.72;21.58;;;14.20;51.70;;;;;;5035127;28;19973;-67
2022/11/22 05:10:56;;;;;;;88.82;23.05;;;15.00;50.00;;;;;;5038168;28;20076;-67
2022/11/22 05:13:30;;;;;;;92.03;21.05;;;15.50;48.80;;;;;;5038528;28;20123;-68
2022/11/22 05:15:57;;;;;;;95.10;21.75;;;15.90;47.30;;;;;;5041109;28;20082;-72
2022/11/22 05:18:24;;;;;;;73.93;19.98;;;16.00;46.80;;;;;;5041551;28;20416;-67
2022/11/22 05:20:51;;;;;;;84.18;19.52;;;16.20;46.60;;;;;;5042057;28;20109;-68
2022/11/22 05:26:04;;;;;;;83.70;20.33;;;16.30;45.50;;;;;;5038560;28;20120;-68
2022/11/22 05:28:33;;;;;;;74.65;18.52;;;16.30;45.10;;;;;;5042779;28;20117;-69
2022/11/22 05:31:05;;;;;;;68.18;19.30;;;16.30;45.20;;;;;;5040862;28;20074;-68
2022/11/22 05:33:31;;;;;;;83.88;19.48;;;16.30;45.90;;;;;;5041047;28;20078;-68
2022/11/22 05:36:00;;;;;;;;;;;16.10;45.40;;;;;;5046764;28;20093;-67
2022/11/22 05:38:27;;;;;;;71.32;18.27;;;15.90;45.60;;;;;;5033063;28;19964;-67
2022/11/22 05:40:53;;;;;;;66.82;17.45;;;15.90;45.70;;;;;;5045507;28;20093;-69
2022/11/22 05:43:19;;;;;;;;;;;15.90;45.10;;;;;;5039883;28;20074;-69
2022/11/22 05:45:46;;;;;;;69.55;17.10;;;16.00;45.20;;;;;;5038897;28;20334;-68
2022/11/22 05:48:12;;;;;;;;;;;15.90;45.10;;;;;;5045737;28;20078;-70
2022/11/22 05:50:38;;;;;;;78.88;18.77;;;15.90;44.80;;;;;;5042980;28;20410;-72
2022/11/22 05:53:04;;;;;;;;;;;15.80;45.00;;;;;;5044345;28;20543;-68
2022/11/22 05:55:31;;;;;;;58.72;15.80;;;15.80;44.60;;;;;;5035785;28;19981;-68
2022/11/22 05:58:00;;;;;;;65.82;16.30;;;15.80;44.50;;;;;;5042151;28;20088;-71
2022/11/22 06:00:28;;;;;;;59.50;15.85;;;15.70;45.60;;;;;;5044952;28;20130;-67
2022/11/22 06:03:00;;;;;;;55.67;15.02;;;15.70;44.30;;;;;;5038627;28;20117;-70
2022/11/22 06:05:27;;;;;;;69.72;14.93;;;15.50;44.70;;;;;;5042084;28;20074;-69
2022/11/22 06:07:58;;;;;;;64.68;15.60;;;15.40;44.30;;;;;;5033377;28;20187;-69
2022/11/22 06:10:25;;;;;;;57.97;16.48;;;15.50;43.90;;;;;;5038439;28;20423;-70
2022/11/22 06:12:53;;;;;;;68.22;17.60;;;15.40;44.30;;;;;;5043898;28;20444;-70
2022/11/22 06:15:19;;;;;;;66.35;16.90;;;15.30;44.40;;;;;;5044697;28;20296;-71
2022/11/22 06:17:46;;;;;;;68.57;17.17;;;15.30;45.20;;;;;;5038907;28;20120;-72
2022/11/22 06:20:12;;;;;;;76.38;18.83;;;15.30;44.90;;;;;;5049012;28;20069;-72
2022/11/22 06:22:38;;;;;;;65.75;18.63;;;15.20;45.40;;;;;;5045445;28;20151;-70
2022/11/22 06:25:05;;;;;;;;;;;15.10;45.80;;;;;;5040783;28;20535;-72
2022/11/22 06:27:31;;;;;;;73.57;17.45;;;15.00;45.70;;;;;;5039036;28;19961;-70
2022/11/22 06:29:57;;;;;;;;;;;15.00;45.40;;;;;;5042319;28;20160;-69
2022/11/22 06:32:23;;;;;;;65.45;17.23;;;14.90;46.80;;;;;;5038287;28;20032;-69
2022/11/22 06:34:49;;;;;;;;;;;14.70;47.20;;;;;;5041992;28;20082;-69
2022/11/22 06:37:16;;;;;;;57.15;14.55;;;14.60;46.60;;;;;;5043416;28;20405;-69
2022/11/22 06:39:42;;;;;;;;;;;14.60;46.20;;;;;;5046385;28;20093;-68
2022/11/22 06:42:08;;;;;;;62.90;16.02;;;14.50;47.40;;;;;;5042469;28;20028;-70
2022/11/22 06:44:35;;;;;;;50.35;14.48;;;14.50;46.30;;;;;;5040103;28;20066;-69
2022/11/22 06:47:01;;;;;;;;;;;14.40;46.50;;;;;;5036803;28;20093;-67
2022/11/22 06:49:27;;;;;;;60.63;14.02;;;14.40;46.50;;;;;;5044838;28;20455;-69
2022/11/22 06:51:53;;;;;;;;;;;14.60;45.60;;;;;;5037482;28;20089;-69
2022/11/22 06:54:19;;;;;;;59.58;15.10;;;14.60;45.30;;;;;;5041429;28;19957;-70
2022/11/22 06:56:46;;;;;;;60.00;17.10;;;14.50;46.10;;;;;;5043320;28;20479;-71
2022/11/22 06:59:12;;;;;;;;;;;14.40;46.10;;;;;;5039482;28;20066;-70
2022/11/22 07:01:38;;;;;;;65.25;18.35;;;14.40;46.80;;;;;;5034995;28;19969;-68
2022/11/22 07:04:04;;;;;;;;;;;14.30;46.70;;;;;;5040646;28;20105;-69
2022/11/22 07:06:37;;;;;;;70.55;23.40;;;14.30;46.90;;;;;;5043786;28;20019;-69
2022/11/22 07:09:07;;;;;;;72.22;25.63;;;14.10;47.30;;;;;;5036625;28;20109;-69
2022/11/22 07:11:34;;;;;;;55.40;19.98;;;14.10;48.40;;;;;;5041681;28;20101;-71
2022/11/22 07:14:03;;;;;;;67.50;21.75;;;14.10;47.40;;;;;;5038606;28;20086;-70
2022/11/22 07:16:29;;;;;;;65.97;21.88;;;14.00;47.00;;;;;;5042208;28;20093;-70
2022/11/22 07:18:57;;;;;;;;;;;14.00;48.10;;;;;;5048212;28;20592;-69
2022/11/22 07:21:24;;;;;;;73.50;32.40;;;13.90;47.80;;;;;;5040371;28;19958;-69
2022/11/22 07:23:51;;;;;;;;;;;13.90;46.50;;;;;;5038092;28;20109;-70
2022/11/22 07:26:19;;;;;;;66.72;23.80;;;13.90;46.80;;;;;;5042208;28;20492;-68
2022/11/22 07:28:45;;;;;;;80.68;23.50;;;13.80;46.80;;;;;;5038530;28;20427;-69
2022/11/22 07:31:12;;;;;;;;;;;13.70;47.20;;;;;;5039379;28;20097;-70
2022/11/22 07:33:39;;;;;;;59.78;20.95;;;13.70;47.90;;;;;;5036175;28;20044;-70
2022/11/22 07:36:14;;;;;;;58.28;19.77;;;13.60;48.10;;;;;;5044194;28;20572;-71
2022/11/22 07:38:40;;;;;;;62.10;19.50;;;13.60;47.90;;;;;;5039671;28;20481;-70
2022/11/22 07:41:08;;;;;;;71.47;19.65;;;13.70;48.30;;;;;;5034489;28;20101;-71
2022/11/22 07:43:35;;;;;;;65.40;19.25;;;13.60;48.50;;;;;;5041723;28;20087;-70
2022/11/22 07:46:06;;;;;;;59.58;18.38;;;13.60;47.60;;;;;;5043650;28;20153;-70
2022/11/22 07:48:33;;;;;;;54.70;17.45;;;13.50;47.60;;;;;;5037138;28;20096;-70
2022/11/22 07:51:04;;;;;;;55.00;17.83;;;13.50;47.60;;;;;;5039404;28;20130;-70
2022/11/22 07:53:31;;;;;;;47.17;16.05;;;13.30;47.10;;;;;;5037286;28;20082;-71
2022/11/22 07:56:03;;;;;;;52.58;15.57;;;13.30;47.40;;;;;;5042505;28;20179;-70
2022/11/22 07:58:30;;;;;;;51.70;15.40;;;13.30;47.30;;;;;;5041941;28;20077;-71
2022/11/22 08:00:57;;;;;;;44.25;14.18;;;13.30;46.80;;;;;;5038808;28;20081;-70
2022/11/22 08:03:23;;;;;;;;;;;13.20;46.60;;;;;;5041751;28;20101;-68
2022/11/22 08:05:49;;;;;;;46.22;13.48;;;13.30;45.90;;;;;;5042106;28;20019;-69
2022/11/22 08:08:15;;;;;;;;;;;13.20;45.60;;;;;;5033547;28;20100;-69
2022/11/22 08:10:43;;;;;;;33.60;10.85;;;13.20;44.90;;;;;;5029729;28;19957;-70
2022/11/22 08:13:10;;;;;;;41.20;8.55;;;13.20;44.70;;;;;;5041131;28;20073;-70
2022/11/22 08:15:36;;;;;;;;;;;13.20;43.20;;;;;;5037505;28;20454;-70
2022/11/22 08:18:02;;;;;;;23.33;7.45;;;13.20;41.90;;;;;;5041289;28;20431;-71
2022/11/22 08:20:29;;;;;;;23.80;5.95;;;13.30;42.00;;;;;;5037361;28;20157;-69
2022/11/22 08:22:55;;;;;;;;;;;13.30;41.00;;;;;;5040004;28;20074;-70
2022/11/22 08:25:21;;;;;;;12.75;4.70;;;13.20;40.60;;;;;;5041468;28;19961;-70
2022/11/22 08:27:47;;;;;;;11.88;3.75;;;13.20;40.00;;;;;;5029739;28;20089;-71
2022/11/22 08:30:14;;;;;;;;;;;13.30;39.70;;;;;;5038739;28;20070;-70
2022/11/22 08:32:40;;;;;;;13.02;2.90;;;13.30;39.00;;;;;;5028940;28;19976;-71
2022/11/22 08:35:06;;;;;;;;;;;13.30;38.40;;;;;;5040676;28;20143;-72
2022/11/22 08:37:33;;;;;;;10.93;2.70;;;13.30;37.90;;;;;;5040390;28;19965;-70
2022/11/22 08:39:59;;;;;;;9.43;2.20;;;13.30;38.20;;;;;;5039844;28;20070;-70
2022/11/22 08:42:26;;;;;;;;;;;13.30;38.50;;;;;;5034185;28;20109;-70
2022/11/22 08:44:52;;;;;;;12.68;2.60;;;13.30;38.60;;;;;;5036670;28;20000;-71
2022/11/22 08:47:18;;;;;;;;;;;13.30;38.80;;;;;;5043364;28;20107;-70
2022/11/22 08:49:45;;;;;;;7.10;2.30;;;13.20;39.30;;;;;;5040906;28;19968;-69
2022/11/22 08:52:11;;;;;;;;;;;13.20;40.00;;;;;;5047182;28;20438;-71
2022/11/22 08:54:37;;;;;;;8.73;2.75;;;13.20;40.00;;;;;;5042531;28;19985;-71
2022/11/22 08:57:03;;;;;;;;;;;13.10;40.70;;;;;;5042090;28;20068;-71
2022/11/22 08:59:29;;;;;;;11.43;3.15;;;13.00;41.00;;;;;;5039181;28;20179;-70
2022/11/22 09:01:55;;;;;;;;;;;12.90;41.20;;;;;;5040574;28;20066;-71
2022/11/22 09:04:22;;;;;;;9.60;2.70;;;12.80;41.70;;;;;;5043959;28;19957;-70
2022/11/22 09:06:48;;;;;;;;;;;12.80;40.90;;;;;;5042551;28;20103;-70
2022/11/22 09:09:17;;;;;;;13.65;3.10;;;12.80;41.60;;;;;;5044970;28;20000;-69
2022/11/22 09:11:44;;;;;;;13.82;2.58;;;12.70;41.70;;;;;;5032817;28;20070;-69
2022/11/22 09:14:10;;;;;;;9.35;2.45;;;12.60;41.50;;;;;;5043155;28;20077;-71
2022/11/22 09:16:37;;;;;;;7.68;2.25;;;12.60;41.20;;;;;;5044200;28;21409;-68
2022/11/22 09:19:03;;;;;;;;;;;12.50;41.60;;;;;;5041547;28;20093;-71
2022/11/22 09:21:29;;;;;;;8.45;2.08;;;12.50;41.40;;;;;;5047417;28;20407;-70
2022/11/22 09:23:55;;;;;;;;;;;12.40;41.80;;;;;;5044033;28;20084;-69
2022/11/22 09:26:26;;;;;;;13.38;2.47;;;12.30;41.30;;;;;;5038712;28;19966;-68
2022/11/22 09:28:52;;;;;;;9.88;2.00;;;12.20;41.40;;;;;;5043048;28;20094;-71
2022/11/22 09:31:20;;;;;;;7.78;2.40;;;12.20;41.70;;;;;;5046451;28;20412;-69
2022/11/22 09:33:48;;;;;;;9.75;2.20;;;12.20;42.10;;;;;;5044554;28;20070;-71
2022/11/22 09:36:25;;;;;;;10.25;2.13;;;12.10;42.20;;;;;;5041530;28;20574;-72
2022/11/22 09:38:52;;;;;;;7.28;2.58;;;12.10;41.90;;;;;;5042053;28;20093;-70
2022/11/22 09:41:38;;;;;;;8.20;2.40;;;12.10;42.40;;;;;;5044954;28;20081;-69
2022/11/22 09:44:17;;;;;;;6.38;2.22;;;12.00;42.50;;;;;;5041935;28;20069;-71
2022/11/22 09:46:52;;;;;;;6.65;2.30;;;11.90;42.70;;;;;;5025762;28;20523;-69
2022/11/22 09:49:21;;;;;;;9.77;2.15;;;12.00;43.00;;;;;;5043439;28;20123;-71
2022/11/22 09:52:02;;;;;;;7.70;2.20;;;12.00;42.80;;;;;;5042259;28;20073;-70
2022/11/22 09:54:54;;;;;;;7.15;2.42;;;11.90;43.20;;;;;;5044375;28;20086;-69
2022/11/22 09:57:27;;;;;;;12.90;2.40;;;11.80;44.40;;;;;;5042304;28;20093;-70
2022/11/22 10:00:06;;;;;;;12.20;2.45;;;11.70;43.90;;;;;;5044866;28;20073;-69
2022/11/22 10:02:44;;;;;;;10.10;2.55;;;11.70;43.70;;;;;;5043160;28;20196;-70
2022/11/22 10:05:51;;;;;;;8.63;2.35;;;11.60;43.00;;;;;;5043557;28;20448;-70
2022/11/22 10:08:38;;;;;;;10.55;2.35;;;11.60;43.10;;;;;;4992567;28;20089;-71
2022/11/22 10:11:27;;;;;;;10.43;3.28;;;11.50;43.90;;;;;;5043392;28;20098;-71
2022/11/22 10:14:01;;;;;;;11.93;2.50;;;11.50;44.20;;;;;;5039047;28;20497;-72
2022/11/22 10:16:49;;;;;;;5.32;2.50;;;11.60;44.10;;;;;;5041984;28;20193;-72
2022/11/22 10:19:34;;;;;;;10.75;2.17;;;11.60;44.20;;;;;;5038484;28;20066;-70
2022/11/22 10:22:01;;;;;;;10.38;2.22;;;11.60;44.10;;;;;;5041479;28;20073;-69
2022/11/22 10:24:27;;;;;;;;;;;11.50;43.90;;;;;;5042754;28;20073;-70
2022/11/22 10:26:56;;;;;;;7.78;2.35;;;11.40;44.10;;;;;;5040755;28;20338;-70
2022/11/22 10:29:47;;;;;;;6.90;2.10;;;11.50;43.40;;;;;;5044067;28;20084;-70
2022/11/22 10:32:16;;;;;;;5.97;2.22;;;11.50;43.80;;;;;;5036959;28;20074;-69
2022/11/22 10:35:05;;;;;;;10.02;2.50;;;11.50;44.10;;;;;;5039834;28;20090;-71
2022/11/22 10:38:02;;;;;;;8.30;2.30;;;11.50;43.90;;;;;;5042385;28;20074;-69
2022/11/22 10:40:38;;;;;;;8.25;2.13;;;11.40;44.50;;;;;;5038245;28;20085;-71
2022/11/22 10:43:19;;;;;;;5.13;2.00;;;11.30;44.80;;;;;;5042715;28;20065;-71
2022/11/22 10:46:07;;;;;;;8.57;2.15;;;11.20;43.90;;;;;;5015882;28;20165;-69
2022/11/22 10:48:33;;;;;;;;;;;11.20;44.40;;;;;;5041918;28;20077;-70
2022/11/22 10:51:28;;;;;;;8.10;2.10;;;11.30;43.50;;;;;;5040335;28;20022;-69
2022/11/22 10:53:55;;;;;;;5.55;2.10;;;11.40;43.10;;;;;;5048525;28;20090;-71
2022/11/22 10:56:52;;;;;;;9.80;1.95;;;11.30;44.00;;;;;;5039827;28;20102;-69
2022/11/22 10:59:51;;;;;;;3.42;1.77;;;11.30;43.80;;;;;;5037245;28;20081;-71
2022/11/22 11:02:36;;;;;;;6.10;2.00;;;11.30;43.30;;;;;;5041024;28;20109;-71
2022/11/22 11:05:09;;;;;;;7.72;2.10;;;11.30;43.30;;;;;;5031066;28;20065;-71
2022/11/22 11:07:40;;;;;;;14.35;2.30;;;11.20;44.90;;;;;;5038679;28;20076;-71
2022/11/22 11:10:16;;;;;;;3.33;1.90;;;11.20;44.30;;;;;;5046497;28;20066;-71
2022/11/22 11:12:55;;;;;;;10.57;2.70;;;11.20;44.40;;;;;;5038548;28;20527;-70
2022/11/22 11:15:27;;;;;;;7.43;2.20;;;11.30;44.80;;;;;;5038985;28;20094;-70
2022/11/22 11:18:00;;;;;;;7.95;2.47;;;11.40;44.50;;;;;;5042780;28;20101;-71
2022/11/22 11:20:37;;;;;;;12.15;2.30;;;11.40;45.00;;;;;;5041265;28;20081;-69
2022/11/22 11:23:03;;;;;;;9.70;2.95;;;11.30;45.60;;;;;;5044246;28;20168;-69
2022/11/22 11:25:32;;;;;;;;;;;11.30;44.80;;;;;;5041535;28;20102;-71
2022/11/22 11:28:08;;;;;;;6.65;2.70;;;11.30;44.40;;;;;;5041815;28;19968;-69
2022/11/22 11:30:49;;;;;;;7.07;2.92;;;11.40;44.10;;;;;;5043262;28;20531;-71
2022/11/22 11:33:23;;;;;;;7.40;2.88;;;11.40;43.90;;;;;;5040633;28;21611;-68
2022/11/22 11:35:53;;;;;;;7.82;3.17;;;11.30;44.20;;;;;;5034887;28;20097;-71
2022/11/22 11:38:51;;;;;;;13.68;4.00;;;11.20;45.00;;;;;;5045930;28;20108;-71
2022/11/22 11:41:24;;;;;;;10.35;5.07;;;11.00;45.00;;;;;;5024095;28;20121;-70
2022/11/22 11:43:53;;;;;;;21.13;6.47;;;11.00;44.80;;;;;;5041245;28;20074;-69
2022/11/22 11:46:25;;;;;;;20.02;7.50;;;11.10;43.70;;;;;;5019928;28;20515;-71
2022/11/22 11:49:07;;;;;;;24.52;7.13;;;11.20;43.00;;;;;;5039919;28;20081;-72
2022/11/22 11:51:42;;;;;;;19.77;7.70;;;11.10;42.50;;;;;;5039294;28;20132;-69
2022/11/22 11:54:47;;;;;;;22.67;7.65;;;11.10;42.30;;;;;;5042919;28;20564;-71
2022/11/22 11:57:18;;;;;;;18.40;7.18;;;11.10;42.40;;;;;;5042198;28;20606;-71
2022/11/22 11:59:48;;;;;;;18.42;7.10;;;11.00;42.40;;;;;;5041092;28;20082;-70
2022/11/22 12:02:22;;;;;;;19.48;7.93;;;11.00;43.30;;;;;;5042238;28;20152;-71
2022/11/22 12:04:57;;;;;;;17.75;7.50;;;10.90;43.10;;;;;;5043136;28;20082;-70
2022/11/22 12:07:29;;;;;;;27.00;9.10;;;10.80;43.50;;;;;;5038805;28;20084;-71
2022/11/22 12:09:56;;;;;;;25.45;9.77;;;10.80;43.70;;;;;;5041938;28;20524;-70
2022/11/22 12:12:22;;;;;;;;;;;10.70;44.40;;;;;;5037608;28;20093;-68
2022/11/22 12:15:00;;;;;;;29.95;11.35;;;10.60;44.60;;;;;;5043561;28;19991;-72
2022/11/22 12:17:30;;;;;;;27.15;10.70;;;10.60;45.80;;;;;;5039416;28;20069;-71
2022/11/22 12:20:16;;;;;;;33.80;10.73;;;10.60;45.70;;;;;;5039445;28;20088;-71
2022/11/22 12:23:31;;;;;;;29.38;11.55;;;10.60;46.00;;;;;;5036611;28;20152;-70
2022/11/22 12:25:59;;;;;;;26.75;10.43;;;10.60;46.20;;;;;;5042056;28;20109;-71
2022/11/22 12:28:28;;;;;;;24.15;10.40;;;10.60;46.00;;;;;;5043024;28;20480;-71
2022/11/22 12:31:03;;;;;;;33.25;12.35;;;10.60;46.10;;;;;;5042774;28;20077;-70
2022/11/22 12:33:55;;;;;;;36.05;12.43;;;10.60;46.00;;;;;;5045158;28;20077;-72
2022/11/22 12:36:53;;;;;;;31.33;12.57;;;10.60;45.90;;;;;;5048219;28;20081;-71
2022/11/22 12:39:26;;;;;;;35.22;13.60;;;10.50;46.10;;;;;;5032976;28;20497;-68
2022/11/22 12:42:01;;;;;;;29.15;13.27;;;10.40;46.00;;;;;;5041106;28;20211;-70
2022/11/22 12:44:34;;;;;;;38.33;13.77;;;10.30;45.50;;;;;;5044705;28;20073;-72
2022/11/22 12:47:14;;;;;;;38.50;13.20;;;10.30;45.00;;;;;;5048168;28;20123;-72
2022/11/22 12:50:05;;;;;;;37.35;11.80;;;10.30;45.60;;;;;;5044197;28;20411;-71
2022/11/22 12:52:34;;;;;;;43.03;12.82;;;10.40;45.60;;;;;;5044756;28;20131;-70
2022/11/22 12:55:28;;;;;;;37.55;12.77;;;10.40;45.30;;;;;;5043830;28;20117;-71
2022/11/22 12:58:06;;;;;;;35.70;13.13;;;10.40;44.70;;;;;;5040918;28;20065;-72
2022/11/22 13:00:39;;;;;;;39.22;12.82;;;10.50;45.20;;;;;;5042759;28;20082;-71
2022/11/22 13:03:13;;;;;;;40.72;13.52;;;10.50;45.10;;;;;;5051028;28;20105;-70
2022/11/22 13:06:00;;;;;;;30.15;12.65;;;10.50;45.80;;;;;;5038088;28;20184;-69
2022/11/22 13:08:51;;;;;;;29.40;12.63;;;10.40;45.30;;;;;;5046384;28;20096;-69
2022/11/22 13:11:46;;;;;;;33.38;11.75;;;10.40;45.80;;;;;;5046086;28;20100;-71
2022/11/22 13:14:20;;;;;;;30.83;12.75;;;10.30;46.60;;;;;;5046422;28;20097;-71
2022/11/22 13:16:47;;;;;;;36.53;12.77;;;10.30;47.30;;;;;;5045378;28;20108;-71
2022/11/22 13:19:16;;;;;;;35.38;11.82;;;10.40;46.90;;;;;;5033442;28;20119;-72
2022/11/22 13:22:03;;;;;;;34.42;12.50;;;10.40;46.50;;;;;;5040565;28;20622;-72